sensor_id;sensor_type;location;lat;lon;timestamp;P1;durP1;ratioP1;P2;durP2;ratioP2
7699;SDS011;3892;47.794;19.126;2023-08-17T00:01:12;7.00;;;6.30;;
7699;SDS011;3892;47.794;19.126;2023-08-17T00:03:40;8.30;;;6.50;;
7699;SDS011;3892;47.794;19.126;2023-08-17T00:06:08;6.63;;;6.03;;
7699;SDS011;3892;47.794;19.126;2023-08-17T00:08:37;9.40;;;6.60;;
7699;SDS011;3892;47.794;19.126;2023-08-17T00:11:05;8.73;;;6.87;;
7699;SDS011;3892;47.794;19.126;2023-08-17T00:13:33;6.60;;;6.03;;
7699;SDS011;3892;47.794;19.126;2023-08-17T00:16:01;7.27;;;6.67;;
7699;SDS011;3892;47.794;19.126;2023-08-17T00:18:31;7.03;;;6.13;;
7699;SDS011;3892;47.794;19.126;2023-08-17T00:20:59;8.17;;;7.37;;
7699;SDS011;3892;47.794;19.126;2023-08-17T00:23:27;8.90;;;6.83;;
7699;SDS011;3892;47.794;19.126;2023-08-17T00:25:55;7.70;;;6.90;;
7699;SDS011;3892;47.794;19.126;2023-08-17T00:28:23;8.60;;;6.73;;
7699;SDS011;3892;47.794;19.126;2023-08-17T00:30:51;9.50;;;7.20;;
7699;SDS011;3892;47.794;19.126;2023-08-17T00:33:19;7.77;;;7.07;;
7699;SDS011;3892;47.794;19.126;2023-08-17T00:35:48;8.13;;;6.93;;
7699;SDS011;3892;47.794;19.126;2023-08-17T00:38:16;9.97;;;7.10;;
7699;SDS011;3892;47.794;19.126;2023-08-17T00:40:45;7.67;;;6.97;;
7699;SDS011;3892;47.794;19.126;2023-08-17T00:43:13;8.33;;;7.50;;
7699;SDS011;3892;47.794;19.126;2023-08-17T00:45:41;7.53;;;6.80;;
7699;SDS011;3892;47.794;19.126;2023-08-17T00:48:11;8.57;;;7.67;;
7699;SDS011;3892;47.794;19.126;2023-08-17T00:50:39;7.90;;;6.67;;
7699;SDS011;3892;47.794;19.126;2023-08-17T00:53:10;7.13;;;6.43;;
7699;SDS011;3892;47.794;19.126;2023-08-17T00:55:39;7.67;;;6.97;;
7699;SDS011;3892;47.794;19.126;2023-08-17T00:58:08;10.83;;;6.43;;
7699;SDS011;3892;47.794;19.126;2023-08-17T01:00:36;8.03;;;7.10;;
7699;SDS011;3892;47.794;19.126;2023-08-17T01:03:04;7.73;;;7.00;;
7699;SDS011;3892;47.794;19.126;2023-08-17T01:05:32;9.03;;;6.80;;
7699;SDS011;3892;47.794;19.126;2023-08-17T01:08:00;7.80;;;7.00;;
7699;SDS011;3892;47.794;19.126;2023-08-17T01:10:36;7.93;;;6.90;;
7699;SDS011;3892;47.794;19.126;2023-08-17T01:13:13;7.93;;;6.83;;
7699;SDS011;3892;47.794;19.126;2023-08-17T01:15:45;7.87;;;7.07;;
7699;SDS011;3892;47.794;19.126;2023-08-17T01:18:20;7.57;;;6.83;;
7699;SDS011;3892;47.794;19.126;2023-08-17T01:20:49;8.00;;;6.90;;
7699;SDS011;3892;47.794;19.126;2023-08-17T01:23:21;7.50;;;6.80;;
7699;SDS011;3892;47.794;19.126;2023-08-17T01:25:50;9.70;;;7.43;;
7699;SDS011;3892;47.794;19.126;2023-08-17T01:28:19;7.80;;;7.20;;
7699;SDS011;3892;47.794;19.126;2023-08-17T01:30:55;8.03;;;7.33;;
7699;SDS011;3892;47.794;19.126;2023-08-17T01:33:27;7.70;;;7.00;;
7699;SDS011;3892;47.794;19.126;2023-08-17T01:36:01;7.80;;;7.20;;
7699;SDS011;3892;47.794;19.126;2023-08-17T01:38:35;11.80;;;7.43;;
7699;SDS011;3892;47.794;19.126;2023-08-17T01:41:04;11.93;;;8.10;;
7699;SDS011;3892;47.794;19.126;2023-08-17T01:43:33;9.07;;;7.20;;
7699;SDS011;3892;47.794;19.126;2023-08-17T01:46:02;7.90;;;6.80;;
7699;SDS011;3892;47.794;19.126;2023-08-17T01:48:30;7.90;;;7.17;;
7699;SDS011;3892;47.794;19.126;2023-08-17T01:50:58;7.73;;;6.93;;
7699;SDS011;3892;47.794;19.126;2023-08-17T01:53:26;8.00;;;7.30;;
7699;SDS011;3892;47.794;19.126;2023-08-17T01:55:56;8.60;;;7.80;;
7699;SDS011;3892;47.794;19.126;2023-08-17T01:58:24;9.00;;;8.20;;
7699;SDS011;3892;47.794;19.126;2023-08-17T02:00:52;9.17;;;8.37;;
7699;SDS011;3892;47.794;19.126;2023-08-17T02:03:20;8.80;;;8.00;;
7699;SDS011;3892;47.794;19.126;2023-08-17T02:05:48;8.67;;;7.70;;
7699;SDS011;3892;47.794;19.126;2023-08-17T02:08:16;8.83;;;7.67;;
7699;SDS011;3892;47.794;19.126;2023-08-17T02:10:44;8.40;;;7.57;;
7699;SDS011;3892;47.794;19.126;2023-08-17T02:13:13;8.90;;;8.10;;
7699;SDS011;3892;47.794;19.126;2023-08-17T02:15:42;11.43;;;7.43;;
7699;SDS011;3892;47.794;19.126;2023-08-17T02:18:11;8.03;;;7.07;;
7699;SDS011;3892;47.794;19.126;2023-08-17T02:20:39;9.47;;;7.03;;
7699;SDS011;3892;47.794;19.126;2023-08-17T02:23:07;11.23;;;8.10;;
7699;SDS011;3892;47.794;19.126;2023-08-17T02:25:37;10.13;;;7.47;;
7699;SDS011;3892;47.794;19.126;2023-08-17T02:28:05;8.53;;;7.73;;
7699;SDS011;3892;47.794;19.126;2023-08-17T02:30:35;7.90;;;7.17;;
7699;SDS011;3892;47.794;19.126;2023-08-17T02:33:03;10.73;;;7.93;;
7699;SDS011;3892;47.794;19.126;2023-08-17T02:35:31;9.60;;;8.70;;
7699;SDS011;3892;47.794;19.126;2023-08-17T02:38:00;9.23;;;7.37;;
7699;SDS011;3892;47.794;19.126;2023-08-17T02:40:28;10.60;;;7.50;;
7699;SDS011;3892;47.794;19.126;2023-08-17T02:42:57;8.80;;;7.90;;
7699;SDS011;3892;47.794;19.126;2023-08-17T02:45:25;11.10;;;7.83;;
7699;SDS011;3892;47.794;19.126;2023-08-17T02:47:54;8.90;;;8.00;;
7699;SDS011;3892;47.794;19.126;2023-08-17T02:50:22;9.97;;;8.47;;
7699;SDS011;3892;47.794;19.126;2023-08-17T02:52:51;9.27;;;8.30;;
7699;SDS011;3892;47.794;19.126;2023-08-17T02:55:19;11.23;;;7.90;;
7699;SDS011;3892;47.794;19.126;2023-08-17T02:57:47;11.00;;;8.33;;
7699;SDS011;3892;47.794;19.126;2023-08-17T03:00:15;8.27;;;7.47;;
7699;SDS011;3892;47.794;19.126;2023-08-17T03:02:43;9.70;;;8.10;;
7699;SDS011;3892;47.794;19.126;2023-08-17T03:05:13;9.33;;;8.40;;
7699;SDS011;3892;47.794;19.126;2023-08-17T03:07:41;9.17;;;7.53;;
7699;SDS011;3892;47.794;19.126;2023-08-17T03:10:09;10.73;;;7.90;;
7699;SDS011;3892;47.794;19.126;2023-08-17T03:12:37;10.53;;;7.80;;
7699;SDS011;3892;47.794;19.126;2023-08-17T03:15:06;9.73;;;7.70;;
7699;SDS011;3892;47.794;19.126;2023-08-17T03:17:34;8.53;;;7.67;;
7699;SDS011;3892;47.794;19.126;2023-08-17T03:20:03;9.27;;;8.27;;
7699;SDS011;3892;47.794;19.126;2023-08-17T03:22:34;9.60;;;8.70;;
7699;SDS011;3892;47.794;19.126;2023-08-17T03:25:02;9.33;;;7.97;;
7699;SDS011;3892;47.794;19.126;2023-08-17T03:27:31;10.27;;;7.57;;
7699;SDS011;3892;47.794;19.126;2023-08-17T03:29:59;10.10;;;7.80;;
7699;SDS011;3892;47.794;19.126;2023-08-17T03:32:27;10.47;;;7.10;;
7699;SDS011;3892;47.794;19.126;2023-08-17T03:34:55;8.70;;;7.80;;
7699;SDS011;3892;47.794;19.126;2023-08-17T03:37:23;10.93;;;8.13;;
7699;SDS011;3892;47.794;19.126;2023-08-17T03:39:53;8.47;;;7.37;;
7699;SDS011;3892;47.794;19.126;2023-08-17T03:42:21;10.73;;;7.83;;
7699;SDS011;3892;47.794;19.126;2023-08-17T03:44:49;11.77;;;8.53;;
7699;SDS011;3892;47.794;19.126;2023-08-17T03:47:18;9.83;;;8.10;;
7699;SDS011;3892;47.794;19.126;2023-08-17T03:49:46;9.40;;;8.50;;
7699;SDS011;3892;47.794;19.126;2023-08-17T03:52:14;9.90;;;8.93;;
7699;SDS011;3892;47.794;19.126;2023-08-17T03:54:42;16.47;;;9.10;;
7699;SDS011;3892;47.794;19.126;2023-08-17T03:57:12;9.67;;;8.47;;
7699;SDS011;3892;47.794;19.126;2023-08-17T03:59:41;10.33;;;8.30;;
7699;SDS011;3892;47.794;19.126;2023-08-17T04:02:09;10.73;;;8.03;;
7699;SDS011;3892;47.794;19.126;2023-08-17T04:04:37;14.30;;;7.83;;
7699;SDS011;3892;47.794;19.126;2023-08-17T04:07:05;13.33;;;8.03;;
7699;SDS011;3892;47.794;19.126;2023-08-17T04:09:33;10.30;;;8.00;;
7699;SDS011;3892;47.794;19.126;2023-08-17T04:12:01;9.77;;;8.33;;
7699;SDS011;3892;47.794;19.126;2023-08-17T04:14:32;10.07;;;7.93;;
7699;SDS011;3892;47.794;19.126;2023-08-17T04:17:00;10.00;;;8.00;;
7699;SDS011;3892;47.794;19.126;2023-08-17T04:19:28;9.87;;;8.07;;
7699;SDS011;3892;47.794;19.126;2023-08-17T04:21:56;10.60;;;8.90;;
7699;SDS011;3892;47.794;19.126;2023-08-17T04:24:24;10.00;;;8.60;;
7699;SDS011;3892;47.794;19.126;2023-08-17T04:26:53;10.73;;;8.43;;
7699;SDS011;3892;47.794;19.126;2023-08-17T04:29:21;9.93;;;8.40;;
7699;SDS011;3892;47.794;19.126;2023-08-17T04:31:50;10.77;;;8.50;;
7699;SDS011;3892;47.794;19.126;2023-08-17T04:34:19;13.60;;;9.20;;
7699;SDS011;3892;47.794;19.126;2023-08-17T04:36:47;10.03;;;9.00;;
7699;SDS011;3892;47.794;19.126;2023-08-17T04:39:15;11.37;;;9.07;;
7699;SDS011;3892;47.794;19.126;2023-08-17T04:41:43;10.93;;;8.50;;
7699;SDS011;3892;47.794;19.126;2023-08-17T04:44:11;13.83;;;9.07;;
7699;SDS011;3892;47.794;19.126;2023-08-17T04:46:39;9.60;;;8.37;;
7699;SDS011;3892;47.794;19.126;2023-08-17T04:49:09;9.73;;;8.77;;
7699;SDS011;3892;47.794;19.126;2023-08-17T04:51:37;10.87;;;8.30;;
7699;SDS011;3892;47.794;19.126;2023-08-17T04:54:05;9.60;;;8.43;;
7699;SDS011;3892;47.794;19.126;2023-08-17T04:56:33;10.17;;;8.87;;
7699;SDS011;3892;47.794;19.126;2023-08-17T04:59:01;12.83;;;9.20;;
7699;SDS011;3892;47.794;19.126;2023-08-17T05:01:29;9.77;;;8.67;;
7699;SDS011;3892;47.794;19.126;2023-08-17T05:03:58;12.17;;;8.40;;
7699;SDS011;3892;47.794;19.126;2023-08-17T05:06:29;9.97;;;8.97;;
7699;SDS011;3892;47.794;19.126;2023-08-17T05:08:57;10.63;;;8.50;;
7699;SDS011;3892;47.794;19.126;2023-08-17T05:11:25;11.23;;;8.80;;
7699;SDS011;3892;47.794;19.126;2023-08-17T05:13:53;9.70;;;8.03;;
7699;SDS011;3892;47.794;19.126;2023-08-17T05:16:21;9.07;;;8.23;;
7699;SDS011;3892;47.794;19.126;2023-08-17T05:18:49;11.07;;;8.23;;
7699;SDS011;3892;47.794;19.126;2023-08-17T05:21:17;12.30;;;8.27;;
7699;SDS011;3892;47.794;19.126;2023-08-17T05:23:47;10.17;;;8.30;;
7699;SDS011;3892;47.794;19.126;2023-08-17T05:26:15;8.73;;;7.90;;
7699;SDS011;3892;47.794;19.126;2023-08-17T05:28:44;12.27;;;8.67;;
7699;SDS011;3892;47.794;19.126;2023-08-17T05:31:12;8.67;;;7.87;;
7699;SDS011;3892;47.794;19.126;2023-08-17T05:33:40;8.43;;;7.73;;
7699;SDS011;3892;47.794;19.126;2023-08-17T05:36:08;9.37;;;7.67;;
7699;SDS011;3892;47.794;19.126;2023-08-17T05:38:37;12.90;;;8.27;;
7699;SDS011;3892;47.794;19.126;2023-08-17T05:41:06;9.27;;;8.00;;
7699;SDS011;3892;47.794;19.126;2023-08-17T05:43:34;8.57;;;7.70;;
7699;SDS011;3892;47.794;19.126;2023-08-17T05:46:05;9.83;;;8.27;;
7699;SDS011;3892;47.794;19.126;2023-08-17T05:48:35;8.97;;;8.07;;
7699;SDS011;3892;47.794;19.126;2023-08-17T05:51:03;8.90;;;7.93;;
7699;SDS011;3892;47.794;19.126;2023-08-17T05:53:31;9.93;;;8.20;;
7699;SDS011;3892;47.794;19.126;2023-08-17T05:55:59;8.77;;;7.87;;
7699;SDS011;3892;47.794;19.126;2023-08-17T05:58:29;11.63;;;7.93;;
7699;SDS011;3892;47.794;19.126;2023-08-17T06:01:03;9.47;;;8.10;;
7699;SDS011;3892;47.794;19.126;2023-08-17T06:03:33;9.83;;;8.23;;
7699;SDS011;3892;47.794;19.126;2023-08-17T06:06:02;10.13;;;7.97;;
7699;SDS011;3892;47.794;19.126;2023-08-17T06:08:30;11.10;;;7.90;;
7699;SDS011;3892;47.794;19.126;2023-08-17T06:10:58;9.23;;;8.33;;
7699;SDS011;3892;47.794;19.126;2023-08-17T06:13:26;10.63;;;7.87;;
7699;SDS011;3892;47.794;19.126;2023-08-17T06:15:56;10.60;;;8.40;;
7699;SDS011;3892;47.794;19.126;2023-08-17T06:18:24;11.07;;;8.70;;
7699;SDS011;3892;47.794;19.126;2023-08-17T06:20:52;10.20;;;8.57;;
7699;SDS011;3892;47.794;19.126;2023-08-17T06:23:20;13.13;;;8.70;;
7699;SDS011;3892;47.794;19.126;2023-08-17T06:25:50;10.73;;;8.50;;
7699;SDS011;3892;47.794;19.126;2023-08-17T06:28:18;9.77;;;8.30;;
7699;SDS011;3892;47.794;19.126;2023-08-17T06:30:48;11.93;;;8.30;;
7699;SDS011;3892;47.794;19.126;2023-08-17T06:33:19;13.33;;;8.63;;
7699;SDS011;3892;47.794;19.126;2023-08-17T06:35:47;16.87;;;9.70;;
7699;SDS011;3892;47.794;19.126;2023-08-17T06:38:16;18.60;;;9.30;;
7699;SDS011;3892;47.794;19.126;2023-08-17T06:40:44;18.40;;;9.67;;
7699;SDS011;3892;47.794;19.126;2023-08-17T06:43:14;13.90;;;9.23;;
7699;SDS011;3892;47.794;19.126;2023-08-17T06:45:43;14.23;;;11.27;;
7699;SDS011;3892;47.794;19.126;2023-08-17T06:48:13;11.37;;;9.33;;
7699;SDS011;3892;47.794;19.126;2023-08-17T06:50:41;11.27;;;9.07;;
7699;SDS011;3892;47.794;19.126;2023-08-17T06:53:09;10.23;;;9.20;;
7699;SDS011;3892;47.794;19.126;2023-08-17T06:55:37;11.17;;;9.90;;
7699;SDS011;3892;47.794;19.126;2023-08-17T06:58:05;11.13;;;8.97;;
7699;SDS011;3892;47.794;19.126;2023-08-17T07:00:33;13.43;;;8.97;;
7699;SDS011;3892;47.794;19.126;2023-08-17T07:03:02;9.80;;;8.27;;
7699;SDS011;3892;47.794;19.126;2023-08-17T07:05:33;10.40;;;9.50;;
7699;SDS011;3892;47.794;19.126;2023-08-17T07:08:01;11.47;;;8.90;;
7699;SDS011;3892;47.794;19.126;2023-08-17T07:10:29;9.67;;;8.27;;
7699;SDS011;3892;47.794;19.126;2023-08-17T07:12:57;13.83;;;8.00;;
7699;SDS011;3892;47.794;19.126;2023-08-17T07:15:29;10.87;;;7.93;;
7699;SDS011;3892;47.794;19.126;2023-08-17T07:17:57;17.23;;;15.53;;
7699;SDS011;3892;47.794;19.126;2023-08-17T07:20:25;13.37;;;12.17;;
7699;SDS011;3892;47.794;19.126;2023-08-17T07:22:54;9.50;;;8.17;;
7699;SDS011;3892;47.794;19.126;2023-08-17T07:25:23;10.77;;;7.70;;
7699;SDS011;3892;47.794;19.126;2023-08-17T07:27:51;8.40;;;7.20;;
7699;SDS011;3892;47.794;19.126;2023-08-17T07:30:19;7.53;;;6.77;;
7699;SDS011;3892;47.794;19.126;2023-08-17T07:32:47;8.10;;;6.80;;
7699;SDS011;3892;47.794;19.126;2023-08-17T07:35:15;7.47;;;6.43;;
7699;SDS011;3892;47.794;19.126;2023-08-17T07:37:43;8.27;;;6.40;;
7699;SDS011;3892;47.794;19.126;2023-08-17T07:40:17;7.57;;;6.77;;
7699;SDS011;3892;47.794;19.126;2023-08-17T07:42:45;9.57;;;6.80;;
7699;SDS011;3892;47.794;19.126;2023-08-17T07:45:13;9.33;;;6.73;;
7699;SDS011;3892;47.794;19.126;2023-08-17T07:47:41;10.13;;;7.07;;
7699;SDS011;3892;47.794;19.126;2023-08-17T07:50:09;9.73;;;6.43;;
7699;SDS011;3892;47.794;19.126;2023-08-17T07:52:37;6.97;;;5.90;;
7699;SDS011;3892;47.794;19.126;2023-08-17T07:55:06;10.83;;;6.73;;
7699;SDS011;3892;47.794;19.126;2023-08-17T07:57:35;11.57;;;7.27;;
7699;SDS011;3892;47.794;19.126;2023-08-17T08:00:04;9.27;;;6.37;;
7699;SDS011;3892;47.794;19.126;2023-08-17T08:02:33;8.80;;;6.20;;
7699;SDS011;3892;47.794;19.126;2023-08-17T08:05:01;5.83;;;5.33;;
7699;SDS011;3892;47.794;19.126;2023-08-17T08:07:29;6.40;;;5.80;;
7699;SDS011;3892;47.794;19.126;2023-08-17T08:09:57;6.60;;;6.00;;
7699;SDS011;3892;47.794;19.126;2023-08-17T08:12:25;9.27;;;5.50;;
7699;SDS011;3892;47.794;19.126;2023-08-17T08:14:55;7.40;;;5.20;;
7699;SDS011;3892;47.794;19.126;2023-08-17T08:17:23;8.53;;;7.80;;
7699;SDS011;3892;47.794;19.126;2023-08-17T08:19:51;7.40;;;6.90;;
7699;SDS011;3892;47.794;19.126;2023-08-17T08:22:20;6.77;;;5.10;;
7699;SDS011;3892;47.794;19.126;2023-08-17T08:24:48;5.03;;;4.50;;
7699;SDS011;3892;47.794;19.126;2023-08-17T08:27:16;5.37;;;4.80;;
7699;SDS011;3892;47.794;19.126;2023-08-17T08:29:45;5.27;;;4.40;;
7699;SDS011;3892;47.794;19.126;2023-08-17T08:32:14;5.97;;;5.20;;
7699;SDS011;3892;47.794;19.126;2023-08-17T08:34:42;5.33;;;4.27;;
7699;SDS011;3892;47.794;19.126;2023-08-17T08:37:11;5.87;;;4.40;;
7699;SDS011;3892;47.794;19.126;2023-08-17T08:39:47;21.03;;;19.03;;
7699;SDS011;3892;47.794;19.126;2023-08-17T08:42:17;7.10;;;6.50;;
7699;SDS011;3892;47.794;19.126;2023-08-17T08:44:45;5.67;;;5.17;;
7699;SDS011;3892;47.794;19.126;2023-08-17T08:47:16;7.40;;;4.43;;
7699;SDS011;3892;47.794;19.126;2023-08-17T08:49:53;6.67;;;4.60;;
7699;SDS011;3892;47.794;19.126;2023-08-17T08:52:33;5.20;;;4.60;;
7699;SDS011;3892;47.794;19.126;2023-08-17T08:55:05;6.23;;;4.73;;
7699;SDS011;3892;47.794;19.126;2023-08-17T08:57:38;6.80;;;4.60;;
7699;SDS011;3892;47.794;19.126;2023-08-17T09:00:08;4.57;;;4.10;;
7699;SDS011;3892;47.794;19.126;2023-08-17T09:02:40;4.43;;;3.90;;
7699;SDS011;3892;47.794;19.126;2023-08-17T09:05:10;3.87;;;3.47;;
7699;SDS011;3892;47.794;19.126;2023-08-17T09:07:38;5.17;;;3.60;;
7699;SDS011;3892;47.794;19.126;2023-08-17T09:10:07;3.93;;;3.57;;
7699;SDS011;3892;47.794;19.126;2023-08-17T09:12:36;5.07;;;3.67;;
7699;SDS011;3892;47.794;19.126;2023-08-17T09:15:06;3.90;;;3.50;;
7699;SDS011;3892;47.794;19.126;2023-08-17T09:17:34;4.23;;;3.83;;
7699;SDS011;3892;47.794;19.126;2023-08-17T09:20:04;4.07;;;3.63;;
7699;SDS011;3892;47.794;19.126;2023-08-17T09:22:38;4.93;;;3.63;;
7699;SDS011;3892;47.794;19.126;2023-08-17T09:25:07;3.67;;;3.37;;
7699;SDS011;3892;47.794;19.126;2023-08-17T09:27:37;4.43;;;4.03;;
7699;SDS011;3892;47.794;19.126;2023-08-17T09:30:08;3.93;;;3.50;;
7699;SDS011;3892;47.794;19.126;2023-08-17T09:32:37;4.33;;;3.83;;
7699;SDS011;3892;47.794;19.126;2023-08-17T09:35:07;4.50;;;4.10;;
7699;SDS011;3892;47.794;19.126;2023-08-17T09:37:36;4.10;;;3.70;;
7699;SDS011;3892;47.794;19.126;2023-08-17T09:40:04;4.43;;;3.73;;
7699;SDS011;3892;47.794;19.126;2023-08-17T09:42:34;4.17;;;3.80;;
7699;SDS011;3892;47.794;19.126;2023-08-17T09:45:02;4.03;;;3.70;;
7699;SDS011;3892;47.794;19.126;2023-08-17T09:47:31;4.27;;;3.50;;
7699;SDS011;3892;47.794;19.126;2023-08-17T09:49:59;4.23;;;3.10;;
7699;SDS011;3892;47.794;19.126;2023-08-17T09:52:28;3.70;;;3.40;;
7699;SDS011;3892;47.794;19.126;2023-08-17T09:54:56;3.63;;;3.40;;
7699;SDS011;3892;47.794;19.126;2023-08-17T09:57:33;6.80;;;3.97;;
7699;SDS011;3892;47.794;19.126;2023-08-17T10:00:03;4.97;;;3.60;;
7699;SDS011;3892;47.794;19.126;2023-08-17T10:02:33;3.43;;;3.07;;
7699;SDS011;3892;47.794;19.126;2023-08-17T10:05:02;5.83;;;3.50;;
7699;SDS011;3892;47.794;19.126;2023-08-17T10:07:34;4.47;;;4.07;;
7699;SDS011;3892;47.794;19.126;2023-08-17T10:10:06;4.13;;;3.40;;
7699;SDS011;3892;47.794;19.126;2023-08-17T10:12:37;4.23;;;3.87;;
7699;SDS011;3892;47.794;19.126;2023-08-17T10:15:13;4.27;;;3.37;;
7699;SDS011;3892;47.794;19.126;2023-08-17T10:17:48;5.47;;;4.23;;
7699;SDS011;3892;47.794;19.126;2023-08-17T10:20:23;4.40;;;4.00;;
7699;SDS011;3892;47.794;19.126;2023-08-17T10:22:56;4.00;;;3.40;;
7699;SDS011;3892;47.794;19.126;2023-08-17T10:25:33;3.77;;;3.47;;
7699;SDS011;3892;47.794;19.126;2023-08-17T10:28:02;5.90;;;3.60;;
7699;SDS011;3892;47.794;19.126;2023-08-17T10:30:31;5.23;;;3.33;;
7699;SDS011;3892;47.794;19.126;2023-08-17T10:33:00;5.87;;;3.70;;
7699;SDS011;3892;47.794;19.126;2023-08-17T10:35:30;4.20;;;3.80;;
7699;SDS011;3892;47.794;19.126;2023-08-17T10:38:00;4.37;;;3.37;;
7699;SDS011;3892;47.794;19.126;2023-08-17T10:40:36;3.70;;;3.40;;
7699;SDS011;3892;47.794;19.126;2023-08-17T10:43:06;3.60;;;3.30;;
7699;SDS011;3892;47.794;19.126;2023-08-17T10:45:34;3.67;;;3.33;;
7699;SDS011;3892;47.794;19.126;2023-08-17T10:50:59;4.50;;;3.53;;
7699;SDS011;3892;47.794;19.126;2023-08-17T10:53:34;3.20;;;2.90;;
7699;SDS011;3892;47.794;19.126;2023-08-17T10:56:06;5.30;;;3.27;;
7699;SDS011;3892;47.794;19.126;2023-08-17T10:58:35;4.60;;;3.70;;
7699;SDS011;3892;47.794;19.126;2023-08-17T11:01:03;4.18;;;3.40;;
7699;SDS011;3892;47.794;19.126;2023-08-17T11:03:32;4.47;;;3.47;;
7699;SDS011;3892;47.794;19.126;2023-08-17T11:06:13;3.70;;;3.40;;
7699;SDS011;3892;47.794;19.126;2023-08-17T11:08:53;3.58;;;3.28;;
7699;SDS011;3892;47.794;19.126;2023-08-17T11:11:23;3.70;;;3.40;;
7699;SDS011;3892;47.794;19.126;2023-08-17T11:13:52;3.63;;;3.20;;
7699;SDS011;3892;47.794;19.126;2023-08-17T11:16:22;4.20;;;3.70;;
7699;SDS011;3892;47.794;19.126;2023-08-17T11:18:51;3.67;;;3.37;;
7699;SDS011;3892;47.794;19.126;2023-08-17T11:21:19;4.17;;;3.37;;
7699;SDS011;3892;47.794;19.126;2023-08-17T11:23:47;3.50;;;3.20;;
7699;SDS011;3892;47.794;19.126;2023-08-17T11:26:17;4.10;;;3.70;;
7699;SDS011;3892;47.794;19.126;2023-08-17T11:28:45;3.40;;;3.07;;
7699;SDS011;3892;47.794;19.126;2023-08-17T11:31:14;4.63;;;3.20;;
7699;SDS011;3892;47.794;19.126;2023-08-17T11:33:43;4.07;;;3.67;;
7699;SDS011;3892;47.794;19.126;2023-08-17T11:36:13;4.30;;;3.13;;
7699;SDS011;3892;47.794;19.126;2023-08-17T11:38:42;5.83;;;3.50;;
7699;SDS011;3892;47.794;19.126;2023-08-17T11:41:11;3.40;;;3.10;;
7699;SDS011;3892;47.794;19.126;2023-08-17T11:43:45;3.50;;;3.07;;
7699;SDS011;3892;47.794;19.126;2023-08-17T11:46:13;3.83;;;3.53;;
7699;SDS011;3892;47.794;19.126;2023-08-17T11:48:42;4.25;;;3.03;;
7699;SDS011;3892;47.794;19.126;2023-08-17T11:51:11;3.75;;;3.17;;
7699;SDS011;3892;47.794;19.126;2023-08-17T11:53:39;3.45;;;2.90;;
7699;SDS011;3892;47.794;19.126;2023-08-17T11:56:07;3.38;;;2.90;;
7699;SDS011;3892;47.794;19.126;2023-08-17T11:58:39;3.70;;;3.40;;
7699;SDS011;3892;47.794;19.126;2023-08-17T12:01:10;3.13;;;2.85;;
7699;SDS011;3892;47.794;19.126;2023-08-17T12:03:39;4.13;;;2.80;;
7699;SDS011;3892;47.794;19.126;2023-08-17T12:06:08;3.72;;;3.10;;
7699;SDS011;3892;47.794;19.126;2023-08-17T12:08:36;4.47;;;3.25;;
7699;SDS011;3892;47.794;19.126;2023-08-17T12:11:04;3.75;;;2.97;;
7699;SDS011;3892;47.794;19.126;2023-08-17T12:13:34;3.65;;;3.08;;
7699;SDS011;3892;47.794;19.126;2023-08-17T12:16:03;5.28;;;3.35;;
7699;SDS011;3892;47.794;19.126;2023-08-17T12:18:35;3.30;;;3.10;;
7699;SDS011;3892;47.794;19.126;2023-08-17T12:21:03;8.35;;;2.88;;
7699;SDS011;3892;47.794;19.126;2023-08-17T12:23:32;6.88;;;3.75;;
7699;SDS011;3892;47.794;19.126;2023-08-17T12:26:00;15.02;;;5.53;;
7699;SDS011;3892;47.794;19.126;2023-08-17T12:28:29;9.77;;;5.82;;
7699;SDS011;3892;47.794;19.126;2023-08-17T12:30:57;10.37;;;6.07;;
7699;SDS011;3892;47.794;19.126;2023-08-17T12:33:26;11.70;;;6.18;;
7699;SDS011;3892;47.794;19.126;2023-08-17T12:35:56;12.60;;;5.50;;
7699;SDS011;3892;47.794;19.126;2023-08-17T12:38:25;10.40;;;6.20;;
7699;SDS011;3892;47.794;19.126;2023-08-17T12:40:53;8.87;;;6.00;;
7699;SDS011;3892;47.794;19.126;2023-08-17T12:43:21;12.33;;;6.80;;
7699;SDS011;3892;47.794;19.126;2023-08-17T12:45:49;11.93;;;6.88;;
7699;SDS011;3892;47.794;19.126;2023-08-17T12:48:17;8.83;;;6.27;;
7699;SDS011;3892;47.794;19.126;2023-08-17T12:50:45;10.93;;;6.30;;
7699;SDS011;3892;47.794;19.126;2023-08-17T12:53:15;8.93;;;6.30;;
7699;SDS011;3892;47.794;19.126;2023-08-17T12:55:43;9.67;;;6.63;;
7699;SDS011;3892;47.794;19.126;2023-08-17T12:58:11;7.25;;;6.15;;
7699;SDS011;3892;47.794;19.126;2023-08-17T13:00:39;7.55;;;5.95;;
7699;SDS011;3892;47.794;19.126;2023-08-17T13:03:07;7.03;;;5.53;;
7699;SDS011;3892;47.794;19.126;2023-08-17T13:05:36;7.20;;;5.30;;
7699;SDS011;3892;47.794;19.126;2023-08-17T13:08:06;7.97;;;5.53;;
7699;SDS011;3892;47.794;19.126;2023-08-17T13:10:36;5.60;;;5.03;;
7699;SDS011;3892;47.794;19.126;2023-08-17T13:13:04;4.90;;;4.50;;
7699;SDS011;3892;47.794;19.126;2023-08-17T13:15:32;6.20;;;5.00;;
7699;SDS011;3892;47.794;19.126;2023-08-17T13:18:01;5.53;;;4.97;;
7699;SDS011;3892;47.794;19.126;2023-08-17T13:20:29;7.73;;;4.67;;
7699;SDS011;3892;47.794;19.126;2023-08-17T13:22:57;9.20;;;4.87;;
7699;SDS011;3892;47.794;19.126;2023-08-17T13:25:25;5.63;;;5.17;;
7699;SDS011;3892;47.794;19.126;2023-08-17T13:27:55;7.03;;;5.17;;
7699;SDS011;3892;47.794;19.126;2023-08-17T13:30:23;5.70;;;5.30;;
7699;SDS011;3892;47.794;19.126;2023-08-17T13:32:51;7.40;;;5.13;;
7699;SDS011;3892;47.794;19.126;2023-08-17T13:35:19;15.97;;;13.23;;
7699;SDS011;3892;47.794;19.126;2023-08-17T13:37:50;9.05;;;8.07;;
7699;SDS011;3892;47.794;19.126;2023-08-17T13:40:21;5.10;;;4.60;;
7699;SDS011;3892;47.794;19.126;2023-08-17T13:42:49;5.63;;;4.17;;
7699;SDS011;3892;47.794;19.126;2023-08-17T13:45:18;6.85;;;4.07;;
7699;SDS011;3892;47.794;19.126;2023-08-17T13:47:47;4.80;;;4.40;;
7699;SDS011;3892;47.794;19.126;2023-08-17T13:50:15;6.95;;;4.57;;
7699;SDS011;3892;47.794;19.126;2023-08-17T13:52:44;5.10;;;4.40;;
7699;SDS011;3892;47.794;19.126;2023-08-17T13:55:13;6.93;;;5.18;;
7699;SDS011;3892;47.794;19.126;2023-08-17T13:57:41;6.40;;;5.20;;
7699;SDS011;3892;47.794;19.126;2023-08-17T14:00:10;6.43;;;5.27;;
7699;SDS011;3892;47.794;19.126;2023-08-17T14:02:40;7.73;;;5.27;;
7699;SDS011;3892;47.794;19.126;2023-08-17T14:05:08;8.17;;;5.67;;
7699;SDS011;3892;47.794;19.126;2023-08-17T14:07:36;9.33;;;5.80;;
7699;SDS011;3892;47.794;19.126;2023-08-17T14:10:04;9.60;;;6.00;;
7699;SDS011;3892;47.794;19.126;2023-08-17T14:12:36;6.73;;;6.03;;
7699;SDS011;3892;47.794;19.126;2023-08-17T14:15:04;8.57;;;5.43;;
7699;SDS011;3892;47.794;19.126;2023-08-17T14:17:33;6.90;;;5.27;;
7699;SDS011;3892;47.794;19.126;2023-08-17T14:20:03;5.83;;;5.27;;
7699;SDS011;3892;47.794;19.126;2023-08-17T14:22:31;5.23;;;4.73;;
7699;SDS011;3892;47.794;19.126;2023-08-17T14:24:59;6.40;;;5.17;;
7699;SDS011;3892;47.794;19.126;2023-08-17T14:27:29;7.90;;;4.97;;
7699;SDS011;3892;47.794;19.126;2023-08-17T14:29:57;8.30;;;4.30;;
7699;SDS011;3892;47.794;19.126;2023-08-17T14:32:27;7.43;;;5.03;;
7699;SDS011;3892;47.794;19.126;2023-08-17T14:34:58;5.17;;;4.30;;
7699;SDS011;3892;47.794;19.126;2023-08-17T14:37:27;8.10;;;4.80;;
7699;SDS011;3892;47.794;19.126;2023-08-17T14:39:55;4.97;;;4.27;;
7699;SDS011;3892;47.794;19.126;2023-08-17T14:42:23;6.05;;;4.30;;
7699;SDS011;3892;47.794;19.126;2023-08-17T14:44:53;5.68;;;4.25;;
7699;SDS011;3892;47.794;19.126;2023-08-17T14:47:21;4.43;;;4.00;;
7699;SDS011;3892;47.794;19.126;2023-08-17T14:49:49;7.07;;;4.83;;
7699;SDS011;3892;47.794;19.126;2023-08-17T14:52:19;4.57;;;3.97;;
7699;SDS011;3892;47.794;19.126;2023-08-17T14:54:49;4.87;;;4.30;;
7699;SDS011;3892;47.794;19.126;2023-08-17T14:57:17;4.47;;;3.90;;
7699;SDS011;3892;47.794;19.126;2023-08-17T14:59:47;5.47;;;4.90;;
7699;SDS011;3892;47.794;19.126;2023-08-17T15:02:16;5.37;;;4.30;;
7699;SDS011;3892;47.794;19.126;2023-08-17T15:04:46;4.63;;;4.10;;
7699;SDS011;3892;47.794;19.126;2023-08-17T15:07:15;4.68;;;4.28;;
7699;SDS011;3892;47.794;19.126;2023-08-17T15:09:44;4.57;;;4.17;;
7699;SDS011;3892;47.794;19.126;2023-08-17T15:12:13;6.40;;;4.20;;